sensor_id;sensor_type;location;lat;lon;timestamp;pressure;altitude;pressure_sealevel;temperature;humidity
59545;BME280;45368;55.002;-1.592;2023-04-20T00:01:08;102368.31;;;9.28;55.27
59545;BME280;45368;55.002;-1.592;2023-04-20T00:03:36;102371.24;;;9.50;55.10
59545;BME280;45368;55.002;-1.592;2023-04-20T00:06:04;102365.59;;;8.83;55.79
59545;BME280;45368;55.002;-1.592;2023-04-20T00:08:31;102364.78;;;9.34;55.03
59545;BME280;45368;55.002;-1.592;2023-04-20T00:10:58;102367.33;;;9.51;54.55
59545;BME280;45368;55.002;-1.592;2023-04-20T00:13:25;102368.05;;;9.38;54.14
59545;BME280;45368;55.002;-1.592;2023-04-20T00:15:52;102368.44;;;8.76;55.71
59545;BME280;45368;55.002;-1.592;2023-04-20T00:18:20;102365.45;;;8.71;55.41
59545;BME280;45368;55.002;-1.592;2023-04-20T00:20:47;102362.59;;;9.31;55.41
59545;BME280;45368;55.002;-1.592;2023-04-20T00:23:14;102362.75;;;8.91;55.85
59545;BME280;45368;55.002;-1.592;2023-04-20T00:25:42;102364.05;;;8.72;56.12
59545;BME280;45368;55.002;-1.592;2023-04-20T00:28:08;102367.01;;;8.21;57.07
59545;BME280;45368;55.002;-1.592;2023-04-20T00:30:36;102364.90;;;8.98;55.27
59545;BME280;45368;55.002;-1.592;2023-04-20T00:33:03;102367.66;;;8.84;55.14
59545;BME280;45368;55.002;-1.592;2023-04-20T00:35:30;102372.84;;;8.17;56.64
59545;BME280;45368;55.002;-1.592;2023-04-20T00:37:57;102376.03;;;7.90;57.01
59545;BME280;45368;55.002;-1.592;2023-04-20T00:40:24;102374.04;;;7.76;57.58
59545;BME280;45368;55.002;-1.592;2023-04-20T00:42:55;102371.19;;;8.38;55.76
59545;BME280;45368;55.002;-1.592;2023-04-20T00:46:30;102364.29;;;8.99;54.60
59545;BME280;45368;55.002;-1.592;2023-04-20T00:48:57;102360.86;;;9.24;52.82
59545;BME280;45368;55.002;-1.592;2023-04-20T00:51:25;102359.56;;;9.25;52.36
59545;BME280;45368;55.002;-1.592;2023-04-20T01:07:44;102349.25;;;7.87;57.19
59545;BME280;45368;55.002;-1.592;2023-04-20T01:11:36;102338.70;;;8.38;55.08
59545;BME280;45368;55.002;-1.592;2023-04-20T01:14:04;102336.15;;;8.68;54.23
59545;BME280;45368;55.002;-1.592;2023-04-20T01:16:31;102335.16;;;8.19;54.50
59545;BME280;45368;55.002;-1.592;2023-04-20T01:18:59;102330.36;;;9.21;53.00
59545;BME280;45368;55.002;-1.592;2023-04-20T01:21:31;102322.27;;;9.00;52.79
59545;BME280;45368;55.002;-1.592;2023-04-20T01:23:58;102324.10;;;9.40;51.80
59545;BME280;45368;55.002;-1.592;2023-04-20T01:26:26;102320.19;;;9.27;51.67
59545;BME280;45368;55.002;-1.592;2023-04-20T01:28:58;102316.96;;;9.85;50.90
59545;BME280;45368;55.002;-1.592;2023-04-20T01:31:25;102315.72;;;8.95;52.33
59545;BME280;45368;55.002;-1.592;2023-04-20T01:33:52;102312.68;;;10.40;50.00
59545;BME280;45368;55.002;-1.592;2023-04-20T01:36:19;102314.34;;;9.64;50.44
59545;BME280;45368;55.002;-1.592;2023-04-20T01:38:47;102314.87;;;7.95;54.33
59545;BME280;45368;55.002;-1.592;2023-04-20T01:41:14;102312.54;;;9.28;51.63
59545;BME280;45368;55.002;-1.592;2023-04-20T01:43:41;102309.54;;;9.88;50.92
59545;BME280;45368;55.002;-1.592;2023-04-20T01:46:08;102309.08;;;9.47;51.09
59545;BME280;45368;55.002;-1.592;2023-04-20T01:48:35;102302.92;;;9.96;50.33
59545;BME280;45368;55.002;-1.592;2023-04-20T01:51:02;102296.42;;;10.48;49.29
59545;BME280;45368;55.002;-1.592;2023-04-20T01:53:29;102297.67;;;9.97;49.54
59545;BME280;45368;55.002;-1.592;2023-04-20T01:55:57;102298.64;;;10.08;49.79
59545;BME280;45368;55.002;-1.592;2023-04-20T01:58:24;102293.48;;;10.37;48.76
59545;BME280;45368;55.002;-1.592;2023-04-20T02:00:51;102291.92;;;10.68;48.79
59545;BME280;45368;55.002;-1.592;2023-04-20T02:03:24;102297.42;;;9.27;50.66
59545;BME280;45368;55.002;-1.592;2023-04-20T02:05:51;102288.03;;;10.27;49.80
59545;BME280;45368;55.002;-1.592;2023-04-20T02:08:23;102293.76;;;9.23;50.68
59545;BME280;45368;55.002;-1.592;2023-04-20T02:10:51;102293.50;;;9.32;50.77
59545;BME280;45368;55.002;-1.592;2023-04-20T02:13:45;102286.98;;;10.31;49.83
59545;BME280;45368;55.002;-1.592;2023-04-20T02:16:12;102281.95;;;10.45;49.11
59545;BME280;45368;55.002;-1.592;2023-04-20T02:18:38;102283.62;;;10.55;48.49
59545;BME280;45368;55.002;-1.592;2023-04-20T02:21:06;102281.16;;;9.95;49.55
59545;BME280;45368;55.002;-1.592;2023-04-20T02:23:33;102278.82;;;10.19;49.19
59545;BME280;45368;55.002;-1.592;2023-04-20T02:26:00;102281.12;;;10.09;49.24
59545;BME280;45368;55.002;-1.592;2023-04-20T02:28:27;102279.50;;;8.93;51.25
59545;BME280;45368;55.002;-1.592;2023-04-20T02:30:54;102275.22;;;9.99;49.77
59545;BME280;45368;55.002;-1.592;2023-04-20T02:33:24;102277.71;;;9.81;50.01
59545;BME280;45368;55.002;-1.592;2023-04-20T02:35:52;102272.70;;;9.90;49.58
59545;BME280;45368;55.002;-1.592;2023-04-20T02:38:22;102270.51;;;10.13;48.83
59545;BME280;45368;55.002;-1.592;2023-04-20T02:40:50;102266.61;;;10.92;48.33
59545;BME280;45368;55.002;-1.592;2023-04-20T02:43:17;102268.06;;;10.12;49.04
59545;BME280;45368;55.002;-1.592;2023-04-20T02:45:45;102268.20;;;10.58;48.70
59545;BME280;45368;55.002;-1.592;2023-04-20T02:48:12;102266.44;;;10.33;48.80
59545;BME280;45368;55.002;-1.592;2023-04-20T02:50:41;102266.52;;;10.10;49.32
59545;BME280;45368;55.002;-1.592;2023-04-20T02:53:08;102273.46;;;9.75;50.11
59545;BME280;45368;55.002;-1.592;2023-04-20T02:55:39;102271.87;;;10.29;49.35
59545;BME280;45368;55.002;-1.592;2023-04-20T02:58:06;102267.47;;;10.28;49.06
59545;BME280;45368;55.002;-1.592;2023-04-20T03:00:33;102268.78;;;10.28;48.90
59545;BME280;45368;55.002;-1.592;2023-04-20T03:03:00;102263.47;;;10.47;48.22
59545;BME280;45368;55.002;-1.592;2023-04-20T03:05:26;102269.98;;;10.42;48.18
59545;BME280;45368;55.002;-1.592;2023-04-20T03:07:54;102269.97;;;10.01;49.29
59545;BME280;45368;55.002;-1.592;2023-04-20T03:10:22;102269.43;;;10.53;48.70
59545;BME280;45368;55.002;-1.592;2023-04-20T03:12:50;102263.68;;;10.85;48.51
59545;BME280;45368;55.002;-1.592;2023-04-20T03:15:17;102258.25;;;11.32;47.40
59545;BME280;45368;55.002;-1.592;2023-04-20T03:17:44;102254.87;;;10.94;47.21
59545;BME280;45368;55.002;-1.592;2023-04-20T03:20:12;102257.28;;;11.12;47.03
59545;BME280;45368;55.002;-1.592;2023-04-20T03:22:39;102257.89;;;10.69;47.42
59545;BME280;45368;55.002;-1.592;2023-04-20T03:25:07;102252.70;;;10.89;46.99
59545;BME280;45368;55.002;-1.592;2023-04-20T03:27:34;102250.59;;;11.18;46.84
59545;BME280;45368;55.002;-1.592;2023-04-20T03:30:01;102252.47;;;10.89;46.89
59545;BME280;45368;55.002;-1.592;2023-04-20T03:32:30;102252.65;;;11.17;45.81
59545;BME280;45368;55.002;-1.592;2023-04-20T03:34:57;102254.80;;;11.42;45.43
59545;BME280;45368;55.002;-1.592;2023-04-20T03:37:25;102252.35;;;11.16;45.65
59545;BME280;45368;55.002;-1.592;2023-04-20T03:39:52;102250.75;;;11.27;45.20
59545;BME280;45368;55.002;-1.592;2023-04-20T03:42:24;102252.30;;;10.07;46.71
59545;BME280;45368;55.002;-1.592;2023-04-20T03:44:52;102250.75;;;9.44;47.77
59545;BME280;45368;55.002;-1.592;2023-04-20T03:47:20;102248.23;;;10.48;46.34
59545;BME280;45368;55.002;-1.592;2023-04-20T03:49:46;102246.29;;;10.71;45.98
59545;BME280;45368;55.002;-1.592;2023-04-20T03:52:13;102245.89;;;10.52;45.89
59545;BME280;45368;55.002;-1.592;2023-04-20T03:54:41;102251.22;;;9.19;47.85
59545;BME280;45368;55.002;-1.592;2023-04-20T03:57:08;102245.04;;;8.96;48.53
59545;BME280;45368;55.002;-1.592;2023-04-20T03:59:35;102245.29;;;9.85;47.56
59545;BME280;45368;55.002;-1.592;2023-04-20T04:02:02;102246.31;;;9.32;48.30
59545;BME280;45368;55.002;-1.592;2023-04-20T04:04:29;102239.91;;;8.89;49.04
59545;BME280;45368;55.002;-1.592;2023-04-20T04:06:56;102239.79;;;8.95;50.10
59545;BME280;45368;55.002;-1.592;2023-04-20T04:09:23;102237.75;;;9.89;48.49
59545;BME280;45368;55.002;-1.592;2023-04-20T04:11:51;102235.84;;;8.18;50.73
59545;BME280;45368;55.002;-1.592;2023-04-20T04:14:24;102234.10;;;9.55;49.09
59545;BME280;45368;55.002;-1.592;2023-04-20T04:16:52;102236.90;;;9.99;48.30
59545;BME280;45368;55.002;-1.592;2023-04-20T04:19:24;102236.01;;;8.96;49.22
59545;BME280;45368;55.002;-1.592;2023-04-20T04:21:52;102236.76;;;9.62;47.89
59545;BME280;45368;55.002;-1.592;2023-04-20T04:24:19;102235.05;;;8.93;48.55
59545;BME280;45368;55.002;-1.592;2023-04-20T04:26:46;102237.65;;;7.65;51.14
59545;BME280;45368;55.002;-1.592;2023-04-20T04:29:13;102239.49;;;6.96;54.06
59545;BME280;45368;55.002;-1.592;2023-04-20T04:31:40;102243.48;;;6.60;55.65
59545;BME280;45368;55.002;-1.592;2023-04-20T04:34:07;102247.48;;;6.38;56.02
59545;BME280;45368;55.002;-1.592;2023-04-20T04:36:34;102251.59;;;6.16;57.63
59545;BME280;45368;55.002;-1.592;2023-04-20T04:39:01;102257.36;;;6.95;56.85
59545;BME280;45368;55.002;-1.592;2023-04-20T04:41:28;102251.58;;;7.06;55.67
59545;BME280;45368;55.002;-1.592;2023-04-20T04:43:55;102251.94;;;7.01;55.68
59545;BME280;45368;55.002;-1.592;2023-04-20T04:46:22;102247.03;;;7.85;54.17
59545;BME280;45368;55.002;-1.592;2023-04-20T04:48:49;102247.36;;;8.02;52.41
59545;BME280;45368;55.002;-1.592;2023-04-20T04:51:16;102246.94;;;7.38;53.22
59545;BME280;45368;55.002;-1.592;2023-04-20T04:53:43;102244.17;;;7.19;53.57
59545;BME280;45368;55.002;-1.592;2023-04-20T04:56:09;102248.15;;;6.96;54.28
59545;BME280;45368;55.002;-1.592;2023-04-20T04:58:37;102244.28;;;7.07;53.83
59545;BME280;45368;55.002;-1.592;2023-04-20T05:01:04;102247.45;;;7.27;54.64
59545;BME280;45368;55.002;-1.592;2023-04-20T05:03:37;102251.26;;;6.65;55.18
59545;BME280;45368;55.002;-1.592;2023-04-20T05:06:04;102251.97;;;7.18;54.17
59545;BME280;45368;55.002;-1.592;2023-04-20T05:08:32;102248.16;;;7.77;52.86
59545;BME280;45368;55.002;-1.592;2023-04-20T05:10:59;102249.29;;;7.46;52.67
59545;BME280;45368;55.002;-1.592;2023-04-20T05:13:26;102245.41;;;8.10;52.15
59545;BME280;45368;55.002;-1.592;2023-04-20T05:15:53;102243.97;;;8.69;51.17
59545;BME280;45368;55.002;-1.592;2023-04-20T05:18:20;102245.76;;;8.22;51.93
59545;BME280;45368;55.002;-1.592;2023-04-20T05:20:48;102245.82;;;8.33;51.79
59545;BME280;45368;55.002;-1.592;2023-04-20T05:23:15;102240.46;;;8.19;52.00
59545;BME280;45368;55.002;-1.592;2023-04-20T05:25:42;102238.45;;;7.90;52.14
59545;BME280;45368;55.002;-1.592;2023-04-20T05:28:09;102232.20;;;8.39;51.24
59545;BME280;45368;55.002;-1.592;2023-04-20T05:31:51;102232.95;;;8.50;50.79
59545;BME280;45368;55.002;-1.592;2023-04-20T05:34:29;102232.58;;;8.40;51.10
59545;BME280;45368;55.002;-1.592;2023-04-20T05:37:06;102234.86;;;8.45;51.98
59545;BME280;45368;55.002;-1.592;2023-04-20T05:39:33;102244.63;;;7.68;53.26
59545;BME280;45368;55.002;-1.592;2023-04-20T05:42:00;102241.40;;;8.69;51.50
59545;BME280;45368;55.002;-1.592;2023-04-20T05:44:31;102243.11;;;9.19;50.91
59545;BME280;45368;55.002;-1.592;2023-04-20T06:06:38;102256.06;;;8.70;54.43
59545;BME280;45368;55.002;-1.592;2023-04-20T06:09:19;102254.93;;;7.89;56.64
59545;BME280;45368;55.002;-1.592;2023-04-20T06:11:47;102258.15;;;8.12;57.27
59545;BME280;45368;55.002;-1.592;2023-04-20T06:14:14;102255.56;;;8.19;56.56
59545;BME280;45368;55.002;-1.592;2023-04-20T06:16:41;102260.03;;;8.29;56.78
59545;BME280;45368;55.002;-1.592;2023-04-20T06:19:08;102262.86;;;7.95;57.86
59545;BME280;45368;55.002;-1.592;2023-04-20T06:21:35;102255.37;;;8.17;57.29
59545;BME280;45368;55.002;-1.592;2023-04-20T06:24:03;102260.37;;;8.13;57.14
59545;BME280;45368;55.002;-1.592;2023-04-20T06:26:31;102255.36;;;9.06;55.33
59545;BME280;45368;55.002;-1.592;2023-04-20T06:28:58;102254.79;;;8.67;55.99
59545;BME280;45368;55.002;-1.592;2023-04-20T06:31:26;102252.44;;;8.90;55.67
59545;BME280;45368;55.002;-1.592;2023-04-20T06:33:53;102251.93;;;8.78;56.35
59545;BME280;45368;55.002;-1.592;2023-04-20T06:36:20;102254.53;;;8.86;56.99
59545;BME280;45368;55.002;-1.592;2023-04-20T06:38:47;102253.14;;;7.74;58.63
59545;BME280;45368;55.002;-1.592;2023-04-20T06:41:14;102254.36;;;8.47;58.02
59545;BME280;45368;55.002;-1.592;2023-04-20T06:43:41;102250.06;;;9.13;56.66
59545;BME280;45368;55.002;-1.592;2023-04-20T06:46:08;102249.77;;;9.29;56.32
59545;BME280;45368;55.002;-1.592;2023-04-20T06:48:36;102249.36;;;10.06;54.16
59545;BME280;45368;55.002;-1.592;2023-04-20T06:51:03;102250.96;;;10.78;52.76
59545;BME280;45368;55.002;-1.592;2023-04-20T06:53:30;102253.51;;;9.75;53.81
59545;BME280;45368;55.002;-1.592;2023-04-20T06:55:57;102249.74;;;10.31;53.38
59545;BME280;45368;55.002;-1.592;2023-04-20T06:58:25;102249.26;;;10.27;52.76
59545;BME280;45368;55.002;-1.592;2023-04-20T07:00:53;102247.62;;;11.36;51.32
59545;BME280;45368;55.002;-1.592;2023-04-20T07:03:20;102250.97;;;11.39;51.33
59545;BME280;45368;55.002;-1.592;2023-04-20T07:05:47;102251.83;;;11.17;52.02
59545;BME280;45368;55.002;-1.592;2023-04-20T07:08:14;102258.98;;;9.58;55.07
59545;BME280;45368;55.002;-1.592;2023-04-20T07:10:41;102255.36;;;10.52;53.71
59545;BME280;45368;55.002;-1.592;2023-04-20T07:13:08;102262.43;;;9.65;55.37
59545;BME280;45368;55.002;-1.592;2023-04-20T07:15:36;102253.27;;;11.14;52.62
59545;BME280;45368;55.002;-1.592;2023-04-20T07:18:03;102251.86;;;10.53;52.93
59545;BME280;45368;55.002;-1.592;2023-04-20T07:20:30;102254.44;;;9.63;54.88
59545;BME280;45368;55.002;-1.592;2023-04-20T07:22:58;102249.96;;;10.87;53.16
59545;BME280;45368;55.002;-1.592;2023-04-20T07:25:25;102252.81;;;10.06;54.51
59545;BME280;45368;55.002;-1.592;2023-04-20T07:27:52;102249.84;;;10.28;53.73
59545;BME280;45368;55.002;-1.592;2023-04-20T07:30:19;102248.06;;;9.68;55.66
59545;BME280;45368;55.002;-1.592;2023-04-20T07:32:48;102250.19;;;10.01;55.41
59545;BME280;45368;55.002;-1.592;2023-04-20T07:35:15;102250.60;;;8.73;57.68
59545;BME280;45368;55.002;-1.592;2023-04-20T07:37:43;102252.50;;;8.24;59.23
59545;BME280;45368;55.002;-1.592;2023-04-20T07:40:11;102248.01;;;9.30;56.91
59545;BME280;45368;55.002;-1.592;2023-04-20T07:42:39;102244.73;;;9.44;56.73
59545;BME280;45368;55.002;-1.592;2023-04-20T07:45:08;102243.74;;;9.82;55.52
59545;BME280;45368;55.002;-1.592;2023-04-20T07:47:37;102238.03;;;10.53;54.58
59545;BME280;45368;55.002;-1.592;2023-04-20T07:50:05;102242.28;;;10.05;55.07
59545;BME280;45368;55.002;-1.592;2023-04-20T07:52:33;102245.74;;;9.60;55.70
59545;BME280;45368;55.002;-1.592;2023-04-20T07:55:00;102239.29;;;10.12;54.05
59545;BME280;45368;55.002;-1.592;2023-04-20T07:57:29;102241.38;;;10.04;54.05
59545;BME280;45368;55.002;-1.592;2023-04-20T07:59:56;102243.28;;;9.99;55.50
59545;BME280;45368;55.002;-1.592;2023-04-20T08:02:23;102236.25;;;11.09;53.20
59545;BME280;45368;55.002;-1.592;2023-04-20T08:04:50;102239.54;;;11.03;53.63
59545;BME280;45368;55.002;-1.592;2023-04-20T08:07:18;102237.60;;;12.40;51.18
59545;BME280;45368;55.002;-1.592;2023-04-20T08:09:45;102233.92;;;13.07;48.36
59545;BME280;45368;55.002;-1.592;2023-04-20T08:12:12;102234.13;;;12.89;47.69
59545;BME280;45368;55.002;-1.592;2023-04-20T08:14:39;102232.27;;;12.63;47.15
59545;BME280;45368;55.002;-1.592;2023-04-20T08:17:06;102229.84;;;12.76;46.06
59545;BME280;45368;55.002;-1.592;2023-04-20T08:19:48;102227.08;;;12.75;45.40
59545;BME280;45368;55.002;-1.592;2023-04-20T08:22:16;102225.80;;;12.82;46.12
59545;BME280;45368;55.002;-1.592;2023-04-20T08:24:43;102223.02;;;13.80;45.12
59545;BME280;45368;55.002;-1.592;2023-04-20T08:27:11;102220.84;;;15.44;42.70
59545;BME280;45368;55.002;-1.592;2023-04-20T08:29:39;102222.55;;;15.02;42.42
59545;BME280;45368;55.002;-1.592;2023-04-20T08:32:06;102225.87;;;14.07;42.94
59545;BME280;45368;55.002;-1.592;2023-04-20T08:34:34;102230.35;;;12.74;45.21
59545;BME280;45368;55.002;-1.592;2023-04-20T08:37:02;102234.09;;;11.99;45.79
59545;BME280;45368;55.002;-1.592;2023-04-20T08:39:30;102230.98;;;12.77;45.79
59545;BME280;45368;55.002;-1.592;2023-04-20T08:41:58;102234.23;;;11.87;48.08
59545;BME280;45368;55.002;-1.592;2023-04-20T08:44:26;102232.46;;;10.58;51.03
59545;BME280;45368;55.002;-1.592;2023-04-20T08:46:52;102231.41;;;10.54;50.91
59545;BME280;45368;55.002;-1.592;2023-04-20T08:49:20;102237.19;;;9.64;52.87
59545;BME280;45368;55.002;-1.592;2023-04-20T08:51:47;102229.97;;;9.92;53.55
59545;BME280;45368;55.002;-1.592;2023-04-20T08:54:15;102230.32;;;10.83;52.26
59545;BME280;45368;55.002;-1.592;2023-04-20T08:56:45;102225.95;;;10.65;51.46
59545;BME280;45368;55.002;-1.592;2023-04-20T08:59:14;102225.99;;;10.98;50.23
59545;BME280;45368;55.002;-1.592;2023-04-20T09:01:42;102227.38;;;10.05;51.98
59545;BME280;45368;55.002;-1.592;2023-04-20T09:04:19;102226.49;;;10.74;51.40
59545;BME280;45368;55.002;-1.592;2023-04-20T09:06:48;102225.34;;;10.54;51.26
59545;BME280;45368;55.002;-1.592;2023-04-20T09:09:17;102226.35;;;9.80;53.19
59545;BME280;45368;55.002;-1.592;2023-04-20T09:11:44;102227.22;;;9.52;54.16
59545;BME280;45368;55.002;-1.592;2023-04-20T09:14:14;102229.00;;;9.31;55.09
59545;BME280;45368;55.002;-1.592;2023-04-20T09:16:48;102224.50;;;9.47;53.16
59545;BME280;45368;55.002;-1.592;2023-04-20T09:19:21;102221.65;;;9.16;54.34
59545;BME280;45368;55.002;-1.592;2023-04-20T09:21:50;102224.00;;;9.94;53.75
59545;BME280;45368;55.002;-1.592;2023-04-20T09:24:19;102215.70;;;10.19;52.95
59545;BME280;45368;55.002;-1.592;2023-04-20T09:26:47;102218.80;;;10.05;53.77
59545;BME280;45368;55.002;-1.592;2023-04-20T09:29:16;102217.35;;;9.42;54.80
59545;BME280;45368;55.002;-1.592;2023-04-20T09:31:43;102218.24;;;8.23;56.27
59545;BME280;45368;55.002;-1.592;2023-04-20T09:34:11;102217.84;;;8.94;55.33
59545;BME280;45368;55.002;-1.592;2023-04-20T09:36:39;102213.49;;;8.73;56.38
59545;BME280;45368;55.002;-1.592;2023-04-20T09:39:08;102209.97;;;9.18;55.38
59545;BME280;45368;55.002;-1.592;2023-04-20T09:41:36;102209.43;;;9.77;54.17
59545;BME280;45368;55.002;-1.592;2023-04-20T09:44:05;102209.92;;;10.17;51.96
59545;BME280;45368;55.002;-1.592;2023-04-20T09:46:33;102211.74;;;9.36;54.38
59545;BME280;45368;55.002;-1.592;2023-04-20T09:49:02;102210.25;;;9.56;54.25
59545;BME280;45368;55.002;-1.592;2023-04-20T09:51:32;102214.05;;;8.93;55.58
59545;BME280;45368;55.002;-1.592;2023-04-20T09:54:00;102210.61;;;10.00;53.14
59545;BME280;45368;55.002;-1.592;2023-04-20T09:56:28;102216.78;;;9.41;53.16
59545;BME280;45368;55.002;-1.592;2023-04-20T09:58:57;102214.93;;;9.43;53.02
59545;BME280;45368;55.002;-1.592;2023-04-20T10:01:25;102213.37;;;8.65;54.80
59545;BME280;45368;55.002;-1.592;2023-04-20T10:03:53;102217.67;;;8.38;54.87
59545;BME280;45368;55.002;-1.592;2023-04-20T10:06:22;102213.97;;;9.38;54.25
59545;BME280;45368;55.002;-1.592;2023-04-20T10:08:50;102214.31;;;9.93;53.46
59545;BME280;45368;55.002;-1.592;2023-04-20T10:11:35;102205.14;;;10.56;51.36
59545;BME280;45368;55.002;-1.592;2023-04-20T10:14:14;102209.89;;;9.89;51.41
59545;BME280;45368;55.002;-1.592;2023-04-20T10:16:42;102204.59;;;10.36;50.48
59545;BME280;45368;55.002;-1.592;2023-04-20T10:19:10;102205.37;;;9.70;52.01
59545;BME280;45368;55.002;-1.592;2023-04-20T10:21:45;102212.15;;;8.44;55.00
59545;BME280;45368;55.002;-1.592;2023-04-20T10:24:13;102212.29;;;9.62;52.96
59545;BME280;45368;55.002;-1.592;2023-04-20T10:26:44;102209.00;;;9.53;52.79
59545;BME280;45368;55.002;-1.592;2023-04-20T10:29:22;102203.09;;;9.63;52.97
59545;BME280;45368;55.002;-1.592;2023-04-20T10:31:50;102200.85;;;10.25;51.62
59545;BME280;45368;55.002;-1.592;2023-04-20T10:34:29;102204.41;;;8.60;54.04
59545;BME280;45368;55.002;-1.592;2023-04-20T10:37:07;102203.12;;;9.02;53.96
59545;BME280;45368;55.002;-1.592;2023-04-20T10:39:34;102199.53;;;8.77;54.17
59545;BME280;45368;55.002;-1.592;2023-04-20T10:42:03;102193.70;;;10.22;51.93
59545;BME280;45368;55.002;-1.592;2023-04-20T10:44:30;102198.76;;;9.68;52.22
59545;BME280;45368;55.002;-1.592;2023-04-20T10:47:30;102198.39;;;8.68;54.00
59545;BME280;45368;55.002;-1.592;2023-04-20T10:50:08;102197.90;;;9.04;52.44
59545;BME280;45368;55.002;-1.592;2023-04-20T10:52:41;102191.81;;;10.14;51.03
59545;BME280;45368;55.002;-1.592;2023-04-20T10:56:38;102173.49;;;13.86;42.83
59545;BME280;45368;55.002;-1.592;2023-04-20T10:59:06;102165.48;;;16.02;39.13
59545;BME280;45368;55.002;-1.592;2023-04-20T11:01:34;102154.57;;;19.00;34.13
59545;BME280;45368;55.002;-1.592;2023-04-20T11:04:02;102144.64;;;21.86;29.67
59545;BME280;45368;55.002;-1.592;2023-04-20T11:06:29;102156.08;;;18.13;30.96
59545;BME280;45368;55.002;-1.592;2023-04-20T11:08:56;102149.39;;;20.70;29.08
59545;BME280;45368;55.002;-1.592;2023-04-20T11:11:25;102143.71;;;19.61;30.08
59545;BME280;45368;55.002;-1.592;2023-04-20T11:14:04;102137.15;;;22.41;26.83
59545;BME280;45368;55.002;-1.592;2023-04-20T11:16:32;102135.30;;;22.15;27.31
59545;BME280;45368;55.002;-1.592;2023-04-20T11:18:59;102129.06;;;22.09;25.86
59545;BME280;45368;55.002;-1.592;2023-04-20T11:21:35;102125.12;;;20.00;28.06
59545;BME280;45368;55.002;-1.592;2023-04-20T11:24:04;102120.00;;;21.15;27.22
59545;BME280;45368;55.002;-1.592;2023-04-20T11:26:35;102118.91;;;21.94;26.47
59545;BME280;45368;55.002;-1.592;2023-04-20T11:29:03;102112.15;;;21.09;27.05
59545;BME280;45368;55.002;-1.592;2023-04-20T11:31:30;102108.36;;;24.92;23.67
59545;BME280;45368;55.002;-1.592;2023-04-20T11:33:57;102109.27;;;23.28;23.90
59545;BME280;45368;55.002;-1.592;2023-04-20T11:36:27;102109.39;;;21.39;26.65
59545;BME280;45368;55.002;-1.592;2023-04-20T11:38:54;102108.66;;;20.59;27.38
59545;BME280;45368;55.002;-1.592;2023-04-20T11:41:32;102106.76;;;21.50;27.34
59545;BME280;45368;55.002;-1.592;2023-04-20T11:44:00;102113.69;;;21.55;26.28
59545;BME280;45368;55.002;-1.592;2023-04-20T11:46:28;102111.90;;;20.52;26.98
59545;BME280;45368;55.002;-1.592;2023-04-20T11:49:00;102117.54;;;19.91;28.78
59545;BME280;45368;55.002;-1.592;2023-04-20T11:51:27;102131.03;;;17.53;31.28
59545;BME280;45368;55.002;-1.592;2023-04-20T11:53:55;102128.17;;;16.43;34.29
59545;BME280;45368;55.002;-1.592;2023-04-20T11:56:22;102138.35;;;13.64;39.04
59545;BME280;45368;55.002;-1.592;2023-04-20T11:58:50;102135.09;;;12.96;40.22
59545;BME280;45368;55.002;-1.592;2023-04-20T12:01:18;102135.62;;;10.89;44.83
59545;BME280;45368;55.002;-1.592;2023-04-20T12:03:46;102129.63;;;11.63;44.64
59545;BME280;45368;55.002;-1.592;2023-04-20T12:06:13;102130.81;;;11.64;44.10
59545;BME280;45368;55.002;-1.592;2023-04-20T12:08:41;102126.76;;;11.86;43.21
59545;BME280;45368;55.002;-1.592;2023-04-20T12:11:08;102123.30;;;12.33;41.89
59545;BME280;45368;55.002;-1.592;2023-04-20T12:13:36;102128.65;;;11.40;43.64
59545;BME280;45368;55.002;-1.592;2023-04-20T12:16:03;102129.76;;;11.20;45.90
59545;BME280;45368;55.002;-1.592;2023-04-20T12:18:31;102130.91;;;12.41;43.27
59545;BME280;45368;55.002;-1.592;2023-04-20T12:20:58;102136.42;;;9.88;45.58
59545;BME280;45368;55.002;-1.592;2023-04-20T12:23:26;102133.91;;;10.47;44.55
59545;BME280;45368;55.002;-1.592;2023-04-20T12:25:53;102123.41;;;11.65;41.90
59545;BME280;45368;55.002;-1.592;2023-04-20T12:28:20;102127.39;;;10.98;40.83
59545;BME280;45368;55.002;-1.592;2023-04-20T12:30:48;102122.65;;;11.75;41.73
59545;BME280;45368;55.002;-1.592;2023-04-20T12:33:15;102115.85;;;10.51;41.10
59545;BME280;45368;55.002;-1.592;2023-04-20T12:35:47;102112.59;;;11.15;40.51
59545;BME280;45368;55.002;-1.592;2023-04-20T12:38:14;102107.85;;;11.90;37.91
59545;BME280;45368;55.002;-1.592;2023-04-20T12:40:41;102111.35;;;12.25;37.78
59545;BME280;45368;55.002;-1.592;2023-04-20T12:43:09;102108.64;;;11.91;36.21
59545;BME280;45368;55.002;-1.592;2023-04-20T12:45:36;102105.97;;;13.12;34.35
59545;BME280;45368;55.002;-1.592;2023-04-20T12:48:04;102109.72;;;11.69;34.55
59545;BME280;45368;55.002;-1.592;2023-04-20T12:50:31;102111.70;;;12.04;35.57
59545;BME280;45368;55.002;-1.592;2023-04-20T12:52:59;102108.65;;;12.00;36.15
59545;BME280;45368;55.002;-1.592;2023-04-20T12:55:36;102104.49;;;11.71;35.95
59545;BME280;45368;55.002;-1.592;2023-04-20T12:58:04;102107.70;;;11.33;35.86
59545;BME280;45368;55.002;-1.592;2023-04-20T13:00:30;102109.00;;;11.74;35.88
59545;BME280;45368;55.002;-1.592;2023-04-20T13:02:58;102105.00;;;11.58;36.55
59545;BME280;45368;55.002;-1.592;2023-04-20T13:05:26;102103.86;;;10.83;36.60
59545;BME280;45368;55.002;-1.592;2023-04-20T13:07:54;102101.35;;;11.32;35.60
59545;BME280;45368;55.002;-1.592;2023-04-20T13:10:21;102089.09;;;11.68;36.78
59545;BME280;45368;55.002;-1.592;2023-04-20T13:12:48;102094.52;;;12.28;36.34
59545;BME280;45368;55.002;-1.592;2023-04-20T13:15:15;102092.34;;;12.89;33.96
59545;BME280;45368;55.002;-1.592;2023-04-20T13:17:41;102093.84;;;11.77;33.95
59545;BME280;45368;55.002;-1.592;2023-04-20T13:20:09;102095.12;;;10.87;35.15
59545;BME280;45368;55.002;-1.592;2023-04-20T13:22:37;102092.75;;;10.90;36.70
59545;BME280;45368;55.002;-1.592;2023-04-20T13:25:05;102084.63;;;11.51;36.38
59545;BME280;45368;55.002;-1.592;2023-04-20T13:27:32;102070.15;;;12.21;35.04
59545;BME280;45368;55.002;-1.592;2023-04-20T13:29:59;102065.42;;;12.22;35.17